createdAt,value
2023-04-25T00:02:14.597Z,13.04
2023-04-25T00:04:50.325Z,13.03
2023-04-25T00:07:23.250Z,13.02
2023-04-25T00:09:55.773Z,13.01
2023-04-25T00:12:49.825Z,12.99
2023-04-25T00:15:22.223Z,12.95
2023-04-25T00:18:05.277Z,12.91
2023-04-25T00:20:41.320Z,12.88
2023-04-25T00:23:18.864Z,12.88
2023-04-25T00:25:52.370Z,12.88
2023-04-25T00:28:24.870Z,12.89
2023-04-25T00:30:57.408Z,12.89
2023-04-25T00:33:29.982Z,12.90
2023-04-25T00:36:02.738Z,12.90
2023-04-25T00:38:35.826Z,12.91
2023-04-25T00:41:09.922Z,12.92
2023-04-25T00:43:44.093Z,12.92
2023-04-25T00:46:16.768Z,12.92
2023-04-25T00:48:49.945Z,12.91
2023-04-25T00:51:26.201Z,12.90
2023-04-25T00:53:58.925Z,12.90
2023-04-25T00:56:32.315Z,12.89
2023-04-25T00:59:06.313Z,12.88
2023-04-25T01:01:49.020Z,12.88
2023-04-25T01:04:22.434Z,12.88
2023-04-25T01:06:56.506Z,12.87
2023-04-25T01:09:32.367Z,12.87
2023-04-25T01:12:08.371Z,12.86
2023-04-25T01:14:41.050Z,12.85
2023-04-25T01:17:14.293Z,12.84
2023-04-25T01:19:48.761Z,12.82
2023-04-25T01:22:21.972Z,12.80
2023-04-25T01:24:55.758Z,12.79
2023-04-25T01:27:48.913Z,12.78
2023-04-25T01:30:33.123Z,12.77
2023-04-25T01:33:09.865Z,12.78
2023-04-25T01:36:02.648Z,12.80
2023-04-25T01:38:37.514Z,12.82
2023-04-25T01:41:10.626Z,12.83
2023-04-25T01:43:43.743Z,12.83
2023-04-25T01:46:17.075Z,12.84
2023-04-25T01:49:02.620Z,12.85
2023-04-25T01:51:36.561Z,12.86
2023-04-25T01:54:11.027Z,12.87
2023-04-25T01:56:43.549Z,12.88
2023-04-25T01:59:21.131Z,12.89
2023-04-25T02:02:12.450Z,12.89
2023-04-25T02:04:44.851Z,12.88
2023-04-25T02:07:19.067Z,12.87
2023-04-25T02:09:58.507Z,12.84
2023-04-25T02:12:33.290Z,12.84
2023-04-25T02:15:44.186Z,12.82
2023-04-25T02:18:22.350Z,12.81
2023-04-25T02:21:05.426Z,12.82
2023-04-25T02:23:58.495Z,12.82
2023-04-25T02:26:34.432Z,12.82
2023-04-25T02:29:11.061Z,12.82
2023-04-25T02:31:44.420Z,12.84
2023-04-25T02:34:17.417Z,12.84
2023-04-25T02:36:54.836Z,12.85
2023-04-25T02:39:47.303Z,12.85
2023-04-25T02:42:20.066Z,12.85
2023-04-25T02:44:56.184Z,12.83
2023-04-25T02:47:28.943Z,12.83
2023-04-25T02:50:01.954Z,12.83
2023-04-25T02:52:36.427Z,12.83
2023-04-25T02:55:18.580Z,12.83
2023-04-25T02:57:51.683Z,12.83
2023-04-25T03:00:43.494Z,12.82
2023-04-25T03:03:19.034Z,12.82
2023-04-25T03:05:55.388Z,12.82
2023-04-25T03:08:33.637Z,12.81
2023-04-25T03:11:08.914Z,12.79
2023-04-25T03:13:44.343Z,12.77
2023-04-25T03:16:17.464Z,12.74
2023-04-25T03:18:52.858Z,12.72
2023-04-25T03:21:27.629Z,12.71
2023-04-25T03:24:00.542Z,12.69
2023-04-25T03:26:33.356Z,12.68
2023-04-25T03:29:06.157Z,12.68
2023-04-25T03:31:39.568Z,12.68
2023-04-25T03:34:15.798Z,12.68
2023-04-25T03:36:50.527Z,12.69
2023-04-25T03:39:23.311Z,12.70
2023-04-25T03:41:56.434Z,12.69
2023-04-25T03:44:31.131Z,12.70
2023-04-25T03:47:07.298Z,12.71
2023-04-25T03:49:40.224Z,12.73
2023-04-25T03:52:12.741Z,12.74
2023-04-25T03:54:46.480Z,12.75
2023-04-25T03:57:26.293Z,12.78
2023-04-25T03:59:59.656Z,12.80
2023-04-25T04:02:36.263Z,12.82
2023-04-25T04:05:09.695Z,12.85
2023-04-25T04:07:55.306Z,12.88
2023-04-25T04:10:28.742Z,12.91
2023-04-25T04:13:01.301Z,12.93
2023-04-25T04:15:40.315Z,12.95
2023-04-25T04:18:23.063Z,12.97
2023-04-25T04:20:55.945Z,13.00
2023-04-25T04:23:29.324Z,13.03
2023-04-25T04:26:04.850Z,13.04
2023-04-25T04:29:13.847Z,13.07
2023-04-25T04:31:54.974Z,13.10
2023-04-25T04:34:28.262Z,13.19
2023-04-25T04:37:01.425Z,13.23
2023-04-25T04:39:33.849Z,13.24
2023-04-25T04:42:37.432Z,13.24
2023-04-25T04:45:21.824Z,13.24
2023-04-25T04:48:15.214Z,13.25
2023-04-25T04:51:01.602Z,13.26
2023-04-25T04:53:54.938Z,13.28
2023-04-25T04:56:56.425Z,13.30
2023-04-25T04:59:48.784Z,13.33
2023-04-25T05:02:44.039Z,13.37
2023-04-25T05:05:36.221Z,13.37
2023-04-25T05:08:31.906Z,13.38
2023-04-25T05:11:36.437Z,13.41
2023-04-25T05:14:32.206Z,13.47
2023-04-25T05:17:17.959Z,13.57
2023-04-25T05:20:29.395Z,13.73
2023-04-25T05:23:20.490Z,13.87
2023-04-25T05:26:18.725Z,13.96
2023-04-25T05:29:30.048Z,14.03
2023-04-25T05:32:37.808Z,14.04
2023-04-25T05:35:23.387Z,14.01
2023-04-25T05:38:00.709Z,13.96
2023-04-25T05:40:51.984Z,13.89
2023-04-25T05:43:51.050Z,13.84
2023-04-25T05:46:46.610Z,13.82
2023-04-25T05:49:38.432Z,13.81
2023-04-25T05:52:19.976Z,13.80
2023-04-25T05:55:08.018Z,13.78
2023-04-25T05:57:46.246Z,13.75
2023-04-25T06:00:30.698Z,13.70
2023-04-25T06:03:04.070Z,13.68
2023-04-25T06:05:48.017Z,13.68
2023-04-25T06:08:23.312Z,13.69
2023-04-25T06:10:55.984Z,13.71
2023-04-25T06:13:43.961Z,13.72
2023-04-25T06:16:27.890Z,13.73
2023-04-25T06:19:00.747Z,13.74
2023-04-25T06:21:44.252Z,13.76
2023-04-25T06:24:28.344Z,13.77
2023-04-25T06:27:21.168Z,13.78
2023-04-25T06:30:17.517Z,13.77
2023-04-25T06:33:10.781Z,13.73
2023-04-25T06:36:04.962Z,13.67
2023-04-25T06:38:47.909Z,13.58
2023-04-25T06:41:28.587Z,13.48
2023-04-25T06:44:22.287Z,13.38
2023-04-25T06:47:15.171Z,13.31
2023-04-25T06:49:54.809Z,13.31
2023-04-25T06:52:31.136Z,13.36
2023-04-25T06:55:13.965Z,13.47
2023-04-25T06:58:08.227Z,13.59
2023-04-25T07:01:06.023Z,13.63
2023-04-25T07:03:41.952Z,13.62
2023-04-25T07:06:19.335Z,13.51
2023-04-25T07:09:12.062Z,13.35
2023-04-25T07:11:45.151Z,13.20
2023-04-25T07:14:39.389Z,13.03
2023-04-25T07:17:12.696Z,12.88
2023-04-25T07:19:48.412Z,12.72
2023-04-25T07:22:21.114Z,12.58
2023-04-25T07:24:54.324Z,12.50
2023-04-25T07:27:30.043Z,12.45
2023-04-25T07:30:24.808Z,12.42
2023-04-25T07:33:02.119Z,12.39
2023-04-25T07:35:47.430Z,12.36
2023-04-25T07:38:41.772Z,12.34
2023-04-25T07:41:35.956Z,12.30
2023-04-25T07:44:31.471Z,12.21
2023-04-25T07:47:24.273Z,12.12
2023-04-25T07:50:18.370Z,12.02
2023-04-25T07:53:11.402Z,11.93
2023-04-25T07:56:01.972Z,11.85
2023-04-25T07:58:49.320Z,11.79
2023-04-25T08:01:43.994Z,11.74
2023-04-25T08:04:19.069Z,11.72
2023-04-25T08:07:08.557Z,11.68
2023-04-25T08:10:01.995Z,11.66
2023-04-25T08:12:55.032Z,11.68
2023-04-25T08:15:48.878Z,11.65
2023-04-25T08:18:41.927Z,11.57
2023-04-25T08:21:19.334Z,11.49
2023-04-25T08:23:59.887Z,11.42
2023-04-25T08:26:55.049Z,11.36
2023-04-25T08:29:47.652Z,11.29
2023-04-25T08:32:31.746Z,11.24
2023-04-25T08:35:18.784Z,11.20
2023-04-25T08:37:54.138Z,11.16
2023-04-25T08:40:31.334Z,11.13
2023-04-25T08:43:28.754Z,11.10
2023-04-25T08:46:10.175Z,11.06
2023-04-25T08:49:04.239Z,11.04
2023-04-25T08:52:01.613Z,11.04
2023-04-25T08:54:36.516Z,11.03
2023-04-25T08:57:10.731Z,11.01
2023-04-25T08:59:46.999Z,11.00
2023-04-25T09:02:22.148Z,10.99
2023-04-25T09:04:58.603Z,10.98
2023-04-25T09:07:35.504Z,10.96
2023-04-25T09:10:08.936Z,10.94
2023-04-25T09:12:44.998Z,10.93
2023-04-25T09:15:20.707Z,10.94
2023-04-25T09:17:59.430Z,10.97
2023-04-25T09:23:25.584Z,10.95
2023-04-25T09:25:58.060Z,10.95
2023-04-25T09:28:33.031Z,10.94
2023-04-25T09:31:07.713Z,10.96
2023-04-25T09:33:45.674Z,10.96
2023-04-25T09:36:30.234Z,10.95
2023-04-25T09:39:30.784Z,10.95
2023-04-25T09:42:13.914Z,10.96
2023-04-25T09:44:58.489Z,10.94
2023-04-25T09:47:31.225Z,10.94
2023-04-25T09:50:16.150Z,10.93
2023-04-25T09:53:11.049Z,10.96
2023-04-25T09:56:06.805Z,11.08
2023-04-25T09:58:43.174Z,11.24
2023-04-25T10:01:15.993Z,11.41
2023-04-25T10:03:59.270Z,11.55
2023-04-25T10:06:51.538Z,11.67
2023-04-25T10:09:27.128Z,11.74
2023-04-25T10:12:02.954Z,11.77
2023-04-25T10:14:35.725Z,11.76
2023-04-25T10:17:12.461Z,11.79
2023-04-25T10:19:45.654Z,11.80
2023-04-25T10:22:25.933Z,11.74
2023-04-25T10:25:01.748Z,11.64
2023-04-25T10:27:39.550Z,11.58
2023-04-25T10:30:32.396Z,11.63
2023-04-25T10:33:34.919Z,11.68
2023-04-25T10:36:16.081Z,11.72
2023-04-25T10:38:53.257Z,11.73
2023-04-25T10:41:50.175Z,11.75
2023-04-25T10:44:33.808Z,11.73
2023-04-25T10:47:10.672Z,11.71
2023-04-25T10:49:46.245Z,11.70
2023-04-25T10:52:30.833Z,11.67
2023-04-25T10:55:16.008Z,11.61
2023-04-25T10:57:51.016Z,11.56
2023-04-25T11:00:34.177Z,11.54
2023-04-25T11:03:46.583Z,11.56
2023-04-25T11:06:23.701Z,11.58
2023-04-25T11:08:56.145Z,11.58
2023-04-25T11:11:31.421Z,11.58
2023-04-25T11:14:07.748Z,11.55
2023-04-25T11:16:40.590Z,11.47
2023-04-25T11:19:13.346Z,11.42
2023-04-25T11:21:47.373Z,11.40
2023-04-25T11:24:21.588Z,11.38
2023-04-25T11:26:54.363Z,11.34
2023-04-25T11:29:28.689Z,11.27
2023-04-25T11:32:04.741Z,11.17
2023-04-25T11:34:40.170Z,11.07
2023-04-25T11:37:13.502Z,10.95
2023-04-25T11:39:48.886Z,10.83
2023-04-25T11:42:22.295Z,10.71
2023-04-25T11:44:57.323Z,10.65
2023-04-25T11:47:33.792Z,10.64
2023-04-25T11:50:08.406Z,10.62
2023-04-25T11:52:44.645Z,10.61
2023-04-25T11:55:24.047Z,10.58
2023-04-25T11:57:56.307Z,10.57
2023-04-25T12:00:31.292Z,10.53
2023-04-25T12:03:29.118Z,10.51
2023-04-25T12:06:23.144Z,10.56
2023-04-25T12:09:09.905Z,10.60
2023-04-25T12:12:05.060Z,10.64
2023-04-25T12:14:51.186Z,10.67
2023-04-25T12:17:32.926Z,10.68
2023-04-25T12:20:14.855Z,10.69
2023-04-25T12:22:50.956Z,10.69
2023-04-25T12:25:42.068Z,10.66
2023-04-25T12:28:20.785Z,10.65
2023-04-25T12:31:04.551Z,10.64
2023-04-25T12:33:41.112Z,10.65
2023-04-25T12:36:14.981Z,10.70
2023-04-25T12:38:51.012Z,10.70
2023-04-25T12:41:23.469Z,10.70
2023-04-25T12:43:56.099Z,10.69
2023-04-25T12:46:49.048Z,10.70
2023-04-25T12:49:32.075Z,10.68
2023-04-25T12:52:09.549Z,10.66
2023-04-25T12:54:45.028Z,10.63
2023-04-25T12:57:37.681Z,10.60
2023-04-25T13:00:22.581Z,10.59
2023-04-25T13:03:08.253Z,10.56
2023-04-25T13:05:51.648Z,10.55
2023-04-25T13:08:28.194Z,10.51
2023-04-25T13:11:01.327Z,10.52
2023-04-25T13:13:36.765Z,10.54
2023-04-25T13:19:05.557Z,10.62
2023-04-25T13:21:38.183Z,10.65
2023-04-25T13:24:12.522Z,10.67
2023-04-25T13:26:50.724Z,10.74
2023-04-25T13:29:23.564Z,10.78
2023-04-25T13:31:56.328Z,10.77
2023-04-25T13:34:28.957Z,10.78
2023-04-25T13:37:01.686Z,10.78
2023-04-25T13:39:35.849Z,10.80
2023-04-25T13:42:09.760Z,10.87
2023-04-25T13:44:42.656Z,10.97
2023-04-25T13:47:15.463Z,11.07
2023-04-25T13:49:47.978Z,11.20
2023-04-25T13:52:22.203Z,11.28
2023-04-25T13:54:55.096Z,11.27
2023-04-25T13:57:28.206Z,11.20
2023-04-25T14:00:07.225Z,11.06
2023-04-25T14:02:39.977Z,10.96
2023-04-25T14:05:14.158Z,10.90
2023-04-25T14:07:46.964Z,10.88
2023-04-25T14:10:30.836Z,10.86
2023-04-25T14:13:04.342Z,10.81
2023-04-25T14:15:42.786Z,10.71
2023-04-25T14:18:13.784Z,10.58
2023-04-25T14:20:46.724Z,10.43
2023-04-25T14:23:19.231Z,10.34
2023-04-25T14:25:54.091Z,10.27
2023-04-25T14:28:27.952Z,10.22
2023-04-25T14:31:04.288Z,10.20
2023-04-25T14:33:38.496Z,10.20
2023-04-25T14:36:20.702Z,10.20
2023-04-25T14:38:56.640Z,10.19
2023-04-25T14:41:29.886Z,10.20
2023-04-25T14:44:02.425Z,10.22
2023-04-25T14:46:55.077Z,10.21
2023-04-25T14:49:32.021Z,10.19
2023-04-25T14:52:04.688Z,10.18
2023-04-25T14:54:49.477Z,10.13
2023-04-25T14:57:22.462Z,10.03
2023-04-25T14:59:55.452Z,9.89
2023-04-25T15:02:48.921Z,9.77
2023-04-25T15:05:42.300Z,9.66
2023-04-25T15:08:26.388Z,9.60
2023-04-25T15:11:04.523Z,9.57
2023-04-25T15:13:57.216Z,9.51
2023-04-25T15:16:33.257Z,9.47
2023-04-25T15:19:07.995Z,9.40
2023-04-25T15:21:51.958Z,9.31
2023-04-25T15:24:24.993Z,9.25
2023-04-25T15:27:08.012Z,9.24
2023-04-25T15:29:46.630Z,9.21
2023-04-25T15:32:19.564Z,9.16
2023-04-25T15:35:02.466Z,9.11
2023-04-25T15:37:35.025Z,9.08
2023-04-25T15:40:11.141Z,9.03
2023-04-25T15:42:48.060Z,8.99
2023-04-25T15:45:21.808Z,8.96
2023-04-25T15:48:15.115Z,8.91
2023-04-25T15:50:48.083Z,8.87
2023-04-25T15:53:21.217Z,8.86
2023-04-25T15:55:53.934Z,8.84
2023-04-25T15:58:27.838Z,8.82
2023-04-25T16:01:00.608Z,8.81
2023-04-25T16:03:36.564Z,8.79
2023-04-25T16:06:11.991Z,8.78
2023-04-25T16:08:45.035Z,8.79
2023-04-25T16:11:30.012Z,9.34
2023-04-25T16:14:02.880Z,10.43
2023-04-25T16:16:46.551Z,10.73
2023-04-25T16:19:21.012Z,10.85
2023-04-25T16:21:54.269Z,10.88
2023-04-25T16:24:26.889Z,10.93
2023-04-25T16:26:59.701Z,10.82
2023-04-25T16:29:32.543Z,10.73
2023-04-25T16:32:06.060Z,10.67
2023-04-25T16:34:41.820Z,10.62
2023-04-25T16:37:25.377Z,10.50
2023-04-25T16:39:57.977Z,10.36
2023-04-25T16:42:32.031Z,10.24
2023-04-25T16:45:05.638Z,10.14
2023-04-25T16:47:38.308Z,10.10
2023-04-25T16:50:14.585Z,10.09
2023-04-25T16:52:46.948Z,10.08
2023-04-25T16:55:19.868Z,10.09
2023-04-25T16:57:52.254Z,10.05
2023-04-25T17:00:25.309Z,10.02
2023-04-25T17:02:58.406Z,10.00
2023-04-25T17:05:56.774Z,10.02
2023-04-25T17:08:32.401Z,10.06
2023-04-25T17:11:08.941Z,10.11
2023-04-25T17:13:46.563Z,10.10
2023-04-25T17:16:23.292Z,10.09
2023-04-25T17:19:16.256Z,10.08
2023-04-25T17:21:49.120Z,10.01
2023-04-25T17:24:25.471Z,9.90
2023-04-25T17:27:08.494Z,9.76
2023-04-25T17:29:48.464Z,9.60
2023-04-25T17:32:32.121Z,9.44
2023-04-25T17:35:26.232Z,9.29
2023-04-25T17:37:58.805Z,9.16
2023-04-25T17:40:32.886Z,9.04
2023-04-25T17:43:05.693Z,8.96
2023-04-25T17:45:39.009Z,8.84
2023-04-25T17:48:11.642Z,8.71
2023-04-25T17:50:44.202Z,8.65
2023-04-25T17:53:17.769Z,8.59
2023-04-25T17:55:50.657Z,8.53
2023-04-25T17:58:23.230Z,8.45
2023-04-25T18:00:56.264Z,8.37
2023-04-25T18:03:28.880Z,8.31
2023-04-25T18:06:04.672Z,8.24
2023-04-25T18:08:37.797Z,8.19
2023-04-25T18:11:10.455Z,8.16
2023-04-25T18:13:43.289Z,8.13
2023-04-25T18:16:16.011Z,8.08
2023-04-25T18:18:53.655Z,8.05
2023-04-25T18:21:26.440Z,8.07
2023-04-25T18:23:58.813Z,8.08
2023-04-25T18:26:31.715Z,8.10
2023-04-25T18:29:04.562Z,8.11
2023-04-25T18:31:38.891Z,8.10
2023-04-25T18:34:11.999Z,8.08
2023-04-25T18:36:44.433Z,8.16
2023-04-25T18:39:22.593Z,8.29
2023-04-25T18:42:01.445Z,8.27
2023-04-25T18:44:40.973Z,8.23
2023-04-25T18:47:13.491Z,8.22
2023-04-25T18:49:46.466Z,8.23
2023-04-25T18:52:19.203Z,8.23
2023-04-25T18:54:52.592Z,8.25
2023-04-25T18:57:24.878Z,8.23
2023-04-25T18:59:57.498Z,8.22
2023-04-25T19:02:30.103Z,8.20
2023-04-25T19:05:03.188Z,8.18
2023-04-25T19:07:37.097Z,8.16
2023-04-25T19:10:11.652Z,8.14
2023-04-25T19:12:44.294Z,8.14
2023-04-25T19:15:16.912Z,8.14
2023-04-25T19:17:50.253Z,8.12
2023-04-25T19:20:23.501Z,8.11
2023-04-25T19:22:56.333Z,8.08
2023-04-25T19:25:28.894Z,8.08
2023-04-25T19:28:01.883Z,8.09
2023-04-25T19:30:37.289Z,8.09
2023-04-25T19:33:10.602Z,8.09
2023-04-25T19:35:43.323Z,8.09
2023-04-25T19:38:26.161Z,8.08
2023-04-25T19:41:02.970Z,8.08
2023-04-25T19:43:35.426Z,8.08
2023-04-25T19:46:08.792Z,8.08
2023-04-25T19:48:46.834Z,8.05
2023-04-25T19:51:39.857Z,8.03
2023-04-25T19:54:12.947Z,8.02
2023-04-25T19:56:45.935Z,8.03
2023-04-25T19:59:18.842Z,8.02
2023-04-25T20:02:05.877Z,8.00
2023-04-25T20:04:41.952Z,7.99
2023-04-25T20:07:24.950Z,7.99
2023-04-25T20:09:57.912Z,8.00
2023-04-25T20:12:30.760Z,8.00
2023-04-25T20:15:18.900Z,8.01
2023-04-25T20:17:51.526Z,8.03
2023-04-25T20:20:24.744Z,8.03
2023-04-25T20:22:59.463Z,8.03
2023-04-25T20:25:32.267Z,8.02
2023-04-25T20:28:08.219Z,8.00
2023-04-25T20:30:42.357Z,8.00
2023-04-25T20:33:14.916Z,8.00
2023-04-25T20:35:54.981Z,8.00
2023-04-25T20:38:27.920Z,8.00
2023-04-25T20:41:02.540Z,7.99
2023-04-25T20:43:40.596Z,8.00
2023-04-25T20:46:13.790Z,8.00
2023-04-25T20:48:46.523Z,8.01
2023-04-25T20:51:20.387Z,8.01
2023-04-25T20:53:56.917Z,8.01
2023-04-25T20:56:29.490Z,7.99
2023-04-25T20:59:01.732Z,7.97
2023-04-25T21:01:34.673Z,7.97
2023-04-25T21:04:09.045Z,7.95
2023-04-25T21:06:42.509Z,7.94
2023-04-25T21:09:15.264Z,7.92
2023-04-25T21:11:48.017Z,7.90
2023-04-25T21:14:20.788Z,7.88
2023-04-25T21:16:56.044Z,7.85
2023-04-25T21:19:28.870Z,7.82
2023-04-25T21:22:03.884Z,7.80
2023-04-25T21:24:37.719Z,7.76
2023-04-25T21:27:10.201Z,7.72
2023-04-25T21:29:43.398Z,7.71
2023-04-25T21:32:20.954Z,7.69
2023-04-25T21:34:53.614Z,7.68
2023-04-25T21:37:26.201Z,7.65
2023-04-25T21:39:58.803Z,7.62
2023-04-25T21:42:31.733Z,7.59
2023-04-25T21:45:06.226Z,7.57
2023-04-25T21:47:41.358Z,7.53
2023-04-25T21:50:17.277Z,7.50
2023-04-25T21:52:51.330Z,7.46
2023-04-25T21:55:27.502Z,7.42
2023-04-25T21:58:00.604Z,7.39
2023-04-25T22:00:36.547Z,7.37
2023-04-25T22:03:20.279Z,7.34
2023-04-25T22:05:53.812Z,7.33
2023-04-25T22:08:46.952Z,7.34
2023-04-25T22:11:24.457Z,7.35
2023-04-25T22:14:11.080Z,7.34
2023-04-25T22:16:43.761Z,7.35
2023-04-25T22:19:16.534Z,7.36
2023-04-25T22:21:50.682Z,7.39
2023-04-25T22:24:24.631Z,7.42
2023-04-25T22:26:57.239Z,7.44
2023-04-25T22:29:29.826Z,7.45
2023-04-25T22:32:02.723Z,7.45
2023-04-25T22:34:38.367Z,7.45
2023-04-25T22:37:13.911Z,7.45
2023-04-25T22:39:46.381Z,7.45
2023-04-25T22:42:19.446Z,7.45
2023-04-25T22:45:04.818Z,7.45
2023-04-25T22:47:45.233Z,7.47
2023-04-25T22:50:21.253Z,7.47
2023-04-25T22:53:05.366Z,7.48
2023-04-25T22:55:55.862Z,7.49
2023-04-25T22:58:29.034Z,7.50
2023-04-25T23:01:05.271Z,7.51
2023-04-25T23:03:58.673Z,7.53
2023-04-25T23:06:51.651Z,7.58
2023-04-25T23:09:35.183Z,7.58
2023-04-25T23:12:11.027Z,7.55
2023-04-25T23:14:56.224Z,7.55
2023-04-25T23:17:37.058Z,7.54
2023-04-25T23:20:24.846Z,7.53
2023-04-25T23:23:17.383Z,7.55
2023-04-25T23:25:53.252Z,7.53
2023-04-25T23:28:29.205Z,7.53
2023-04-25T23:31:08.450Z,7.53
2023-04-25T23:33:52.230Z,7.55
2023-04-25T23:36:24.892Z,7.56
2023-04-25T23:38:58.077Z,7.58
2023-04-25T23:41:30.530Z,7.61
2023-04-25T23:44:08.945Z,7.61
2023-04-25T23:46:41.685Z,7.64
2023-04-25T23:49:17.506Z,7.65
2023-04-25T23:51:53.826Z,7.66
2023-04-25T23:54:28.894Z,7.67
2023-04-25T23:57:01.585Z,7.67
2023-04-25T23:59:34.071Z,7.67
